createdAt,value
2019-05-28T00:00:55.613Z,99544.30
2019-05-28T00:03:29.519Z,99545.67
2019-05-28T00:06:02.200Z,99552.03
2019-05-28T00:08:34.879Z,99543.16
2019-05-28T00:11:07.457Z,99541.83
2019-05-28T00:13:40.242Z,99536.48
2019-05-28T00:16:12.687Z,99530.30
2019-05-28T00:18:44.952Z,99534.81
2019-05-28T00:21:17.562Z,99534.44
2019-05-28T00:23:51.272Z,99524.79
2019-05-28T00:26:23.999Z,99518.28
2019-05-28T00:28:56.619Z,99516.03
2019-05-28T00:31:29.302Z,99517.78
2019-05-28T00:34:01.992Z,99510.22
2019-05-28T00:36:34.656Z,99503.55
2019-05-28T00:39:09.290Z,99508.34
2019-05-28T00:41:41.979Z,99497.75
2019-05-28T00:44:15.664Z,99488.88
2019-05-28T00:46:48.395Z,99486.67
2019-05-28T00:49:21.031Z,99478.28
2019-05-28T00:51:53.815Z,99479.62
2019-05-28T00:54:26.494Z,99490.27
2019-05-28T00:56:59.994Z,99472.22
2019-05-28T00:59:33.786Z,99466.81
2019-05-28T01:02:06.771Z,99475.63
2019-05-28T01:04:40.475Z,99476.89
2019-05-28T01:07:14.291Z,99476.03
2019-05-28T01:09:46.960Z,99473.43
2019-05-28T01:12:19.649Z,99478.73
2019-05-28T01:14:52.422Z,99477.52
2019-05-28T01:17:26.448Z,99489.10
2019-05-28T01:19:59.022Z,99485.64
2019-05-28T01:22:31.696Z,99483.60
2019-05-28T01:25:06.531Z,99484.17
2019-05-28T01:27:40.263Z,99483.45
2019-05-28T01:30:13.212Z,99483.17
2019-05-28T01:32:47.870Z,99480.98
2019-05-28T01:35:20.216Z,99478.42
2019-05-28T01:37:53.100Z,99479.42
2019-05-28T01:40:25.797Z,99478.05
2019-05-28T01:42:59.066Z,99471.00
2019-05-28T01:45:31.767Z,99473.30
2019-05-28T01:48:05.166Z,99472.53
2019-05-28T01:50:37.838Z,99472.53
2019-05-28T01:53:10.141Z,99466.84
2019-05-28T01:55:42.783Z,99460.19
2019-05-28T01:58:15.451Z,99457.20
2019-05-28T02:00:48.588Z,99459.76
2019-05-28T02:03:21.227Z,99455.45
2019-05-28T02:05:53.904Z,99452.86
2019-05-28T02:08:26.572Z,99460.45
2019-05-28T02:10:59.257Z,99453.41
2019-05-28T02:13:32.138Z,99448.45
2019-05-28T02:16:04.820Z,99447.53
2019-05-28T02:18:37.127Z,99446.14
2019-05-28T02:21:09.369Z,99438.69
2019-05-28T02:23:42.038Z,99438.22
2019-05-28T02:26:14.717Z,99436.39
2019-05-28T02:28:47.396Z,99434.97
2019-05-28T02:31:27.782Z,99435.84
2019-05-28T02:33:54.351Z,99431.38
2019-05-28T02:36:27.072Z,99426.45
2019-05-28T02:38:59.806Z,99422.00
2019-05-28T02:41:32.427Z,99425.47
2019-05-28T02:44:05.673Z,99421.89
2019-05-28T02:46:37.895Z,99425.36
2019-05-28T02:49:10.572Z,99427.12
2019-05-28T02:51:44.593Z,99424.35
2019-05-28T02:54:17.367Z,99425.61
2019-05-28T02:56:51.672Z,99425.06
2019-05-28T02:59:26.107Z,99419.72
2019-05-28T03:02:00.314Z,99420.59
2019-05-28T03:04:33.472Z,99423.29
2019-05-28T03:07:06.489Z,99414.05
2019-05-28T03:09:41.630Z,99415.19
2019-05-28T03:12:14.306Z,99421.75
2019-05-28T03:14:47.036Z,99423.88
2019-05-28T03:17:21.196Z,99422.50
2019-05-28T03:19:54.597Z,99418.59
2019-05-28T03:22:27.578Z,99421.28
2019-05-28T03:25:01.487Z,99418.66
2019-05-28T03:27:34.583Z,99428.91
2019-05-28T03:30:11.020Z,99429.80
2019-05-28T03:32:43.628Z,99421.34
2019-05-28T03:35:16.403Z,99427.42
2019-05-28T03:37:49.083Z,99425.97
2019-05-28T03:40:43.064Z,99423.75
2019-05-28T03:43:17.690Z,99420.98
2019-05-28T03:45:50.698Z,99415.13
2019-05-28T03:48:23.354Z,99414.55
2019-05-28T03:50:56.341Z,99409.26
2019-05-28T03:53:29.020Z,99404.46
2019-05-28T03:56:01.732Z,99402.59
2019-05-28T03:58:34.378Z,99402.08
2019-05-28T04:01:07.161Z,99394.18
2019-05-28T04:03:39.843Z,99393.30
2019-05-28T04:06:12.525Z,99389.77
2019-05-28T04:08:45.089Z,99391.91
2019-05-28T04:11:17.775Z,99384.78
2019-05-28T04:13:50.412Z,99380.88
2019-05-28T04:16:23.132Z,99381.32
2019-05-28T04:18:55.812Z,99383.97
2019-05-28T04:21:28.496Z,99387.02
2019-05-28T04:24:01.170Z,99382.65
2019-05-28T04:26:34.167Z,99385.17
2019-05-28T04:29:06.501Z,99382.44
2019-05-28T04:31:39.216Z,99376.59
2019-05-28T04:34:12.190Z,99375.67
2019-05-28T04:36:44.474Z,99366.49
2019-05-28T04:39:17.073Z,99366.99
2019-05-28T04:41:49.720Z,99372.22
2019-05-28T04:44:22.394Z,99372.66
2019-05-28T04:46:55.086Z,99376.53
2019-05-28T04:49:27.763Z,99376.91
2019-05-28T04:52:00.471Z,99369.73
2019-05-28T04:54:33.121Z,99369.34
2019-05-28T04:57:05.801Z,99362.71
2019-05-28T04:59:38.464Z,99365.11
2019-05-28T05:02:11.359Z,99365.97
2019-05-28T05:04:45.075Z,99359.58
2019-05-28T05:07:17.751Z,99361.44
2019-05-28T05:09:49.991Z,99355.48
2019-05-28T05:12:22.570Z,99355.41
2019-05-28T05:14:55.274Z,99358.33
2019-05-28T05:17:27.968Z,99355.25
2019-05-28T05:20:00.626Z,99345.69
2019-05-28T05:22:33.298Z,99340.22
2019-05-28T05:25:08.331Z,99349.50
2019-05-28T05:27:42.358Z,99349.58
2019-05-28T05:30:16.260Z,99343.83
2019-05-28T05:32:51.198Z,99344.65
2019-05-28T05:35:23.909Z,99340.30
2019-05-28T05:37:56.650Z,99338.77
2019-05-28T05:40:29.434Z,99336.52
2019-05-28T05:43:02.305Z,99337.91
2019-05-28T05:45:35.297Z,99338.72
2019-05-28T05:48:09.155Z,99339.45
2019-05-28T05:50:45.066Z,99330.34
2019-05-28T05:53:16.517Z,99335.75
2019-05-28T05:55:49.194Z,99334.16
2019-05-28T05:58:21.469Z,99329.83
2019-05-28T06:00:54.191Z,99329.86
2019-05-28T06:03:39.834Z,99327.30
2019-05-28T06:06:02.884Z,99322.02
2019-05-28T06:08:37.178Z,99316.77
2019-05-28T06:11:09.972Z,99325.45
2019-05-28T06:13:42.647Z,99327.31
2019-05-28T06:16:15.340Z,99326.98
2019-05-28T06:18:47.619Z,99335.44
2019-05-28T06:21:20.480Z,99331.91
2019-05-28T06:23:53.181Z,99331.72
2019-05-28T06:26:25.418Z,99324.05
2019-05-28T06:28:58.114Z,99328.55
2019-05-28T06:31:30.817Z,99326.77
2019-05-28T06:34:03.486Z,99339.78
2019-05-28T06:36:35.730Z,99335.28
2019-05-28T06:39:09.518Z,99341.02
2019-05-28T06:41:42.125Z,99339.17
2019-05-28T06:44:14.806Z,99346.52
2019-05-28T06:46:47.475Z,99340.24
2019-05-28T06:49:20.258Z,99340.21
2019-05-28T06:51:52.946Z,99349.17
2019-05-28T06:54:25.650Z,99357.95
2019-05-28T06:56:57.857Z,99355.70
2019-05-28T06:59:30.468Z,99356.33
2019-05-28T07:02:03.259Z,99356.07
2019-05-28T07:04:35.930Z,99359.06
2019-05-28T07:07:08.601Z,99352.00
2019-05-28T07:09:42.315Z,99344.83
2019-05-28T07:12:17.886Z,99346.17
2019-05-28T07:14:49.531Z,99343.86
2019-05-28T07:17:22.496Z,99348.73
2019-05-28T07:19:55.190Z,99351.13
2019-05-28T07:22:27.864Z,99354.84
2019-05-28T07:25:00.547Z,99359.70
2019-05-28T07:27:33.217Z,99362.05
2019-05-28T07:30:08.866Z,99360.09
2019-05-28T07:32:41.451Z,99355.05
2019-05-28T07:35:14.733Z,99351.50
2019-05-28T07:37:47.424Z,99349.47
2019-05-28T07:40:31.282Z,99352.14
2019-05-28T07:42:55.133Z,99349.34
2019-05-28T07:45:27.817Z,99353.14
2019-05-28T07:48:00.602Z,99347.34
2019-05-28T07:50:33.264Z,99348.56
2019-05-28T07:53:05.964Z,99344.97
2019-05-28T07:55:38.636Z,99354.98
2019-05-28T07:58:11.319Z,99358.45
2019-05-28T08:00:45.112Z,99355.16
2019-05-28T08:03:17.806Z,99361.23
2019-05-28T08:05:50.479Z,99357.77
2019-05-28T08:08:25.307Z,99360.59
2019-05-28T08:10:57.972Z,99360.25
2019-05-28T08:13:40.096Z,99363.30
2019-05-28T08:16:18.191Z,99363.97
2019-05-28T08:18:40.522Z,99361.91
2019-05-28T08:21:13.205Z,99367.87
2019-05-28T08:23:45.986Z,99367.97
2019-05-28T08:26:18.665Z,99370.78
2019-05-28T08:28:51.373Z,99373.70
2019-05-28T08:31:24.126Z,99363.42
2019-05-28T08:33:57.006Z,99361.19
2019-05-28T08:36:29.891Z,99356.55
2019-05-28T08:39:02.465Z,99367.22
2019-05-28T08:41:37.588Z,99369.42
2019-05-28T08:44:10.184Z,99373.31
2019-05-28T08:46:42.851Z,99374.92
2019-05-28T08:49:15.547Z,99374.28
2019-05-28T08:51:48.526Z,99378.09
2019-05-28T08:54:21.216Z,99386.95
2019-05-28T08:56:53.505Z,99374.41
2019-05-28T08:59:26.203Z,99379.16
2019-05-28T09:01:58.934Z,99373.34
2019-05-28T09:04:31.784Z,99370.13
2019-05-28T09:07:05.625Z,99370.35
2019-05-28T09:09:38.297Z,99373.73
2019-05-28T09:12:10.989Z,99374.42
2019-05-28T09:14:55.988Z,99385.33
2019-05-28T09:17:18.084Z,99384.88
2019-05-28T09:19:50.770Z,99385.72
2019-05-28T09:22:26.224Z,99391.86
2019-05-28T09:24:57.356Z,99392.82
2019-05-28T09:27:31.164Z,99388.30
2019-05-28T09:30:04.249Z,99389.73
2019-05-28T09:32:36.534Z,99401.23
2019-05-28T09:35:11.349Z,99401.78
2019-05-28T09:37:43.930Z,99407.78
2019-05-28T09:40:16.913Z,99397.72
2019-05-28T09:42:50.004Z,99398.08
2019-05-28T09:45:23.524Z,99396.30
2019-05-28T09:47:56.388Z,99397.14
2019-05-28T09:50:30.882Z,99393.56
2019-05-28T09:53:03.071Z,99396.17
2019-05-28T09:55:36.064Z,99394.33
2019-05-28T09:58:16.892Z,99398.94
2019-05-28T10:00:58.027Z,99394.25
2019-05-28T10:03:24.953Z,99397.09
2019-05-28T10:06:15.076Z,99393.69
2019-05-28T10:08:32.263Z,99393.83
2019-05-28T10:11:04.932Z,99392.35
2019-05-28T10:13:39.861Z,99396.47
2019-05-28T10:16:11.460Z,99398.44
2019-05-28T10:18:43.997Z,99401.00
2019-05-28T10:21:18.668Z,99400.94
2019-05-28T10:23:50.893Z,99401.70
2019-05-28T10:26:23.151Z,99407.70
2019-05-28T10:28:56.044Z,99406.39
2019-05-28T10:31:28.723Z,99410.92
2019-05-28T10:34:01.438Z,99411.47
2019-05-28T10:36:36.444Z,99414.13
2019-05-28T10:39:10.245Z,99415.03
2019-05-28T10:41:42.921Z,99423.41
2019-05-28T10:44:15.498Z,99430.09
2019-05-28T10:46:49.202Z,99426.56
2019-05-28T10:49:22.089Z,99432.94
2019-05-28T10:51:55.178Z,99427.70
2019-05-28T10:54:27.421Z,99425.23
2019-05-28T10:57:00.553Z,99431.66
2019-05-28T10:59:32.774Z,99434.52
2019-05-28T11:02:05.481Z,99432.85
2019-05-28T11:04:38.182Z,99441.58
2019-05-28T11:07:19.237Z,99430.45
2019-05-28T11:09:51.702Z,99441.47
2019-05-28T11:12:25.734Z,99442.05
2019-05-28T11:14:58.403Z,99442.94
2019-05-28T11:17:31.077Z,99441.30
2019-05-28T11:20:04.793Z,99438.75
2019-05-28T11:22:37.462Z,99443.47
2019-05-28T11:25:11.485Z,99440.48
2019-05-28T11:27:44.151Z,99450.36
2019-05-28T11:30:19.306Z,99441.66
2019-05-28T11:32:52.168Z,99441.45
2019-05-28T11:35:25.566Z,99441.86
2019-05-28T11:37:57.808Z,99447.36
2019-05-28T11:40:30.316Z,99433.49
2019-05-28T11:43:03.499Z,99435.86
2019-05-28T11:45:36.496Z,99431.75
2019-05-28T11:48:09.615Z,99424.80
2019-05-28T11:50:42.356Z,99423.05
2019-05-28T11:53:15.049Z,99434.31
2019-05-28T11:55:47.926Z,99439.53
2019-05-28T11:58:20.619Z,99442.19
2019-05-28T12:00:53.177Z,99438.75
2019-05-28T12:03:26.164Z,99440.90
2019-05-28T12:05:59.099Z,99436.03
2019-05-28T12:08:31.723Z,99433.38
2019-05-28T12:11:04.304Z,99433.14
2019-05-28T12:13:36.910Z,99434.80
2019-05-28T12:16:09.241Z,99436.92
2019-05-28T12:18:41.932Z,99442.23
2019-05-28T12:21:14.509Z,99444.88
2019-05-28T12:23:47.290Z,99440.73
2019-05-28T12:26:21.406Z,99448.20
2019-05-28T12:28:53.990Z,99443.34
2019-05-28T12:31:26.389Z,99451.69
2019-05-28T12:33:59.062Z,99453.49
2019-05-28T12:36:31.920Z,99458.23
2019-05-28T12:39:06.436Z,99461.34
2019-05-28T12:41:39.121Z,99459.78
2019-05-28T12:44:12.049Z,99460.25
2019-05-28T12:46:44.586Z,99459.53
2019-05-28T12:49:17.260Z,99457.10
2019-05-28T12:51:49.837Z,99456.27
2019-05-28T12:54:22.848Z,99460.49
2019-05-28T12:56:55.498Z,99467.72
2019-05-28T12:59:27.769Z,99465.73
2019-05-28T13:02:00.344Z,99472.45
2019-05-28T13:04:33.023Z,99467.72
2019-05-28T13:07:05.753Z,99471.94
2019-05-28T13:09:38.444Z,99476.13
2019-05-28T13:12:11.061Z,99464.53
2019-05-28T13:14:43.742Z,99473.63
2019-05-28T13:17:16.315Z,99457.84
2019-05-28T13:19:49.008Z,99461.80
2019-05-28T13:22:21.576Z,99456.27
2019-05-28T13:24:53.923Z,99461.57
2019-05-28T13:27:26.620Z,99461.23
2019-05-28T13:29:58.868Z,99465.30
2019-05-28T13:32:31.472Z,99472.58
2019-05-28T13:35:04.974Z,99466.02
2019-05-28T13:37:37.555Z,99464.77
2019-05-28T13:40:12.955Z,99469.47
2019-05-28T13:42:45.670Z,99464.61
2019-05-28T13:45:19.320Z,99472.91
2019-05-28T13:47:51.959Z,99476.52
2019-05-28T13:50:25.040Z,99477.45
2019-05-28T13:52:58.943Z,99478.87
2019-05-28T13:55:31.724Z,99475.48
2019-05-28T13:58:04.322Z,99481.05
2019-05-28T14:00:37.194Z,99482.48
2019-05-28T14:03:10.410Z,99482.33
2019-05-28T14:05:43.464Z,99486.92
2019-05-28T14:08:15.673Z,99480.88
2019-05-28T14:10:48.310Z,99479.02
2019-05-28T14:13:20.890Z,99485.66
2019-05-28T14:15:53.568Z,99491.47
2019-05-28T14:18:27.067Z,99498.53
2019-05-28T14:20:59.743Z,99493.69
2019-05-28T14:23:32.696Z,99493.61
2019-05-28T14:26:05.791Z,99491.56
2019-05-28T14:28:38.395Z,99491.56
2019-05-28T14:31:10.972Z,99495.77
2019-05-28T14:33:43.651Z,99495.53
2019-05-28T14:36:16.437Z,99500.16
2019-05-28T14:39:02.426Z,99495.28
2019-05-28T14:41:23.331Z,99511.30
2019-05-28T14:43:56.008Z,99517.81
2019-05-28T14:46:28.582Z,99512.25
2019-05-28T14:49:01.264Z,99513.11
2019-05-28T14:51:34.970Z,99513.11
2019-05-28T14:54:07.598Z,99516.84
2019-05-28T14:56:40.230Z,99529.99
2019-05-28T14:59:12.906Z,99522.09
2019-05-28T15:01:45.122Z,99527.84
2019-05-28T15:04:18.857Z,99529.86
2019-05-28T15:06:51.451Z,99534.53
2019-05-28T15:09:24.133Z,99540.70
2019-05-28T15:11:56.350Z,99536.37
2019-05-28T15:14:29.077Z,99536.42
2019-05-28T15:17:01.999Z,99538.69
2019-05-28T15:19:34.855Z,99533.22
2019-05-28T15:22:07.462Z,99537.36
2019-05-28T15:24:40.716Z,99537.78
2019-05-28T15:27:13.295Z,99541.22
2019-05-28T15:29:45.992Z,99543.59
2019-05-28T15:32:18.555Z,99557.77
2019-05-28T15:34:50.795Z,99553.34
2019-05-28T15:37:23.397Z,99556.67
2019-05-28T15:39:55.650Z,99558.86
2019-05-28T15:42:28.243Z,99560.80
2019-05-28T15:45:00.928Z,99559.42
2019-05-28T15:47:33.869Z,99559.97
2019-05-28T15:50:08.946Z,99565.97
2019-05-28T15:52:41.521Z,99562.01
2019-05-28T15:55:14.814Z,99576.76
2019-05-28T15:57:47.388Z,99571.08
2019-05-28T16:00:24.644Z,99567.39
2019-05-28T16:02:58.051Z,99572.19
2019-05-28T16:05:30.754Z,99572.69
2019-05-28T16:08:03.330Z,99572.98
2019-05-28T16:10:36.025Z,99583.02
2019-05-28T16:13:08.585Z,99580.97
2019-05-28T16:15:41.368Z,99582.92
2019-05-28T16:18:13.957Z,99579.30
2019-05-28T16:20:46.938Z,99580.52
2019-05-28T16:23:19.504Z,99590.32
2019-05-28T16:25:52.593Z,99581.55
2019-05-28T16:28:26.198Z,99582.98
2019-05-28T16:31:11.717Z,99591.89
2019-05-28T16:33:33.204Z,99602.20
2019-05-28T16:36:05.973Z,99609.25
2019-05-28T16:38:38.862Z,99609.78
2019-05-28T16:41:11.535Z,99609.42
2019-05-28T16:43:44.113Z,99613.11
2019-05-28T16:46:16.695Z,99621.16
2019-05-28T16:48:48.934Z,99624.77
2019-05-28T16:51:21.537Z,99632.36
2019-05-28T16:53:54.115Z,99633.32
2019-05-28T16:56:26.795Z,99640.88
2019-05-28T16:58:59.367Z,99647.55
2019-05-28T17:01:32.054Z,99646.67
2019-05-28T17:04:04.623Z,99654.29
2019-05-28T17:06:38.394Z,99661.30
2019-05-28T17:09:10.701Z,99653.06
2019-05-28T17:11:43.384Z,99665.92
2019-05-28T17:14:15.954Z,99678.27
2019-05-28T17:16:49.067Z,99682.20
2019-05-28T17:19:21.621Z,99687.54
2019-05-28T17:21:54.309Z,99681.47
2019-05-28T17:24:26.882Z,99689.38
2019-05-28T17:27:00.581Z,99694.17
2019-05-28T17:29:32.792Z,99695.05
2019-05-28T17:32:05.430Z,99697.27
2019-05-28T17:34:38.772Z,99696.45
2019-05-28T17:37:12.655Z,99705.25
2019-05-28T17:39:45.263Z,99704.09
2019-05-28T17:42:17.887Z,99704.97
2019-05-28T17:44:50.521Z,99712.95
2019-05-28T17:47:23.045Z,99712.91
2019-05-28T17:49:55.616Z,99717.27
2019-05-28T17:52:28.295Z,99714.27
2019-05-28T17:55:00.972Z,99720.45
2019-05-28T17:57:33.663Z,99726.61
2019-05-28T18:00:07.866Z,99725.70
2019-05-28T18:02:43.784Z,99726.61
2019-05-28T18:05:20.434Z,99729.68
2019-05-28T18:07:54.489Z,99735.80
2019-05-28T18:10:29.799Z,99738.98
2019-05-28T18:13:06.240Z,99737.22
2019-05-28T18:15:47.602Z,99737.73
2019-05-28T18:18:16.931Z,99743.45
2019-05-28T18:20:50.197Z,99743.88
2019-05-28T18:23:22.976Z,99741.70
2019-05-28T18:25:56.474Z,99747.02
2019-05-28T18:28:31.063Z,99752.73
2019-05-28T18:31:05.460Z,99754.92
2019-05-28T18:33:42.829Z,99758.02
2019-05-28T18:36:18.741Z,99762.88
2019-05-28T18:38:52.466Z,99774.31
2019-05-28T18:41:27.650Z,99770.84
2019-05-28T18:44:08.064Z,99773.45
2019-05-28T18:46:44.808Z,99775.67
2019-05-28T18:49:20.594Z,99777.52
2019-05-28T18:51:54.802Z,99777.02
2019-05-28T18:54:30.225Z,99784.06
2019-05-28T18:57:02.821Z,99789.31
2019-05-28T18:59:36.204Z,99800.74
2019-05-28T19:02:10.288Z,99795.92
2019-05-28T19:04:46.990Z,99802.09
2019-05-28T19:07:20.610Z,99803.41
2019-05-28T19:09:54.944Z,99813.57
2019-05-28T19:12:30.804Z,99811.37
2019-05-28T19:15:08.278Z,99825.45
2019-05-28T19:17:41.128Z,99832.05
2019-05-28T19:20:20.624Z,99829.02
2019-05-28T19:22:55.553Z,99834.75
2019-05-28T19:25:29.399Z,99839.16
2019-05-28T19:28:03.242Z,99839.16
2019-05-28T19:30:39.068Z,99838.68
2019-05-28T19:33:11.773Z,99840.91
2019-05-28T19:35:46.340Z,99843.98
2019-05-28T19:38:20.306Z,99843.55
2019-05-28T19:40:52.993Z,99843.54
2019-05-28T19:43:25.573Z,99857.13
2019-05-28T19:45:58.740Z,99861.53
2019-05-28T19:48:32.093Z,99861.98
2019-05-28T19:51:04.960Z,99868.57
2019-05-28T19:53:37.514Z,99874.70
2019-05-28T19:56:10.203Z,99876.02
2019-05-28T19:58:42.431Z,99884.37
2019-05-28T20:01:15.135Z,99880.42
2019-05-28T20:03:47.811Z,99879.98
2019-05-28T20:06:20.551Z,99882.61
2019-05-28T20:08:53.167Z,99888.77
2019-05-28T20:11:25.858Z,99892.72
2019-05-28T20:13:58.430Z,99891.39
2019-05-28T20:16:31.123Z,99893.14
2019-05-28T20:19:04.003Z,99900.19
2019-05-28T20:21:36.665Z,99902.37
2019-05-28T20:24:08.887Z,99900.63
2019-05-28T20:26:41.512Z,99908.52
2019-05-28T20:29:14.094Z,99908.07
2019-05-28T20:31:46.770Z,99912.47
2019-05-28T20:34:19.450Z,99919.05
2019-05-28T20:36:52.128Z,99927.39
2019-05-28T20:39:24.718Z,99923.88
2019-05-28T20:41:57.385Z,99930.03
2019-05-28T20:44:30.267Z,99928.71
2019-05-28T20:47:04.971Z,99928.27
2019-05-28T20:49:37.982Z,99930.90
2019-05-28T20:52:10.441Z,99929.16
2019-05-28T20:54:43.035Z,99940.11
2019-05-28T20:57:15.712Z,99937.91
2019-05-28T20:59:49.409Z,99943.17
2019-05-28T21:02:22.298Z,99945.38
2019-05-28T21:04:54.879Z,99952.84
2019-05-28T21:07:27.861Z,99953.70
2019-05-28T21:10:00.437Z,99954.59
2019-05-28T21:12:43.370Z,99957.64
2019-05-28T21:15:10.129Z,99947.58
2019-05-28T21:17:42.778Z,99947.98
2019-05-28T21:20:15.966Z,99945.36
2019-05-28T21:22:49.775Z,99944.05
2019-05-28T21:25:22.351Z,99952.80
2019-05-28T21:27:56.453Z,99959.83
2019-05-28T21:30:29.453Z,99961.14
2019-05-28T21:33:02.133Z,99958.94
2019-05-28T21:35:34.820Z,99967.73
2019-05-28T21:38:07.485Z,99967.28
2019-05-28T21:40:40.063Z,99969.90
2019-05-28T21:43:12.743Z,99969.45
2019-05-28T21:45:45.319Z,99968.59
2019-05-28T21:48:17.997Z,99976.45
2019-05-28T21:50:50.676Z,99984.77
2019-05-28T21:53:22.935Z,99984.34
2019-05-28T21:55:55.368Z,99981.70
2019-05-28T21:58:27.997Z,99984.75
2019-05-28T22:01:05.290Z,99985.19
2019-05-28T22:03:39.088Z,99989.15
2019-05-28T22:06:11.309Z,99994.39
2019-05-28T22:08:43.937Z,99990.91
2019-05-28T22:11:16.511Z,99992.19
2019-05-28T22:13:49.196Z,100003.13
2019-05-28T22:16:22.080Z,100002.27
2019-05-28T22:18:56.100Z,100004.03
2019-05-28T22:21:28.593Z,100008.84
2019-05-28T22:24:02.559Z,100006.22
2019-05-28T22:26:35.456Z,100006.19
2019-05-28T22:29:08.656Z,100007.95
2019-05-28T22:31:41.327Z,100014.05
2019-05-28T22:34:14.006Z,100018.45
2019-05-28T22:36:46.237Z,100020.22
2019-05-28T22:39:18.853Z,100026.33
2019-05-28T22:41:51.738Z,100028.09
2019-05-28T22:44:24.424Z,100027.63
2019-05-28T22:46:57.404Z,100035.97
2019-05-28T22:49:30.079Z,100035.08
2019-05-28T22:52:03.905Z,100037.25
2019-05-28T22:54:36.772Z,100045.57
2019-05-28T22:57:09.657Z,100046.44
2019-05-28T22:59:42.639Z,100047.73
2019-05-28T23:02:15.533Z,100058.23
2019-05-28T23:04:48.302Z,100059.98
2019-05-28T23:07:21.088Z,100062.61
2019-05-28T23:09:53.973Z,100068.30
2019-05-28T23:12:26.651Z,100073.05
2019-05-28T23:14:59.798Z,100074.41
2019-05-28T23:17:32.442Z,100083.11
2019-05-28T23:20:12.983Z,100085.28
2019-05-28T23:22:45.868Z,100085.26
2019-05-28T23:25:18.548Z,100092.69
2019-05-28T23:27:51.529Z,100087.43
2019-05-28T23:30:25.410Z,100092.24
2019-05-28T23:32:58.216Z,100097.02
2019-05-28T23:35:30.904Z,100101.81
2019-05-28T23:38:04.853Z,100104.42
2019-05-28T23:40:37.551Z,100101.76
2019-05-28T23:43:10.165Z,100104.36
2019-05-28T23:45:43.070Z,100116.16
2019-05-28T23:48:18.306Z,100114.84
2019-05-28T23:50:50.046Z,100122.70
2019-05-28T23:53:22.621Z,100116.07
2019-05-28T23:55:55.303Z,100121.27
2019-05-28T23:58:27.878Z,100125.63
